Time;durP1;ratioP1;P1;durP2;ratioP2;P2;SDS_P1;SDS_P2;PMS_P1;PMS_P2;Temp;Humidity;BMP_temperature;BMP_pressure;BME280_temperature;BME280_humidity;BME280_pressure;Samples;Min_cycle;Max_cycle;Signal;HPM_P1;HPM_P2
2023/05/31 00:01:06;;;;;;;4.22;2.47;;;;;;;22.28;50.85;96313.31;5041421;28;20029;-32
2023/05/31 00:03:31;;;;;;;3.17;2.38;;;;;;;22.24;51.24;96320.38;5034114;28;20033;-33
2023/05/31 00:05:57;;;;;;;3.20;2.50;;;;;;;22.10;52.01;96324.94;5033639;28;20048;-33
2023/05/31 00:08:22;;;;;;;4.20;2.60;;;;;;;22.19;51.54;96321.88;5041075;28;20491;-33
2023/05/31 00:10:48;;;;;;;4.05;2.75;;;;;;;22.33;51.01;96318.09;5033530;28;20017;-32
2023/05/31 00:13:13;;;;;;;4.38;3.13;;;;;;;22.14;51.79;96325.41;5033819;28;20022;-32
2023/05/31 00:15:39;;;;;;;4.22;2.83;;;;;;;22.17;51.75;96325.16;5033829;28;20017;-32
2023/05/31 00:18:04;;;;;;;3.70;2.90;;;;;;;22.16;51.69;96325.66;5033782;28;20104;-32
2023/05/31 00:20:30;;;;;;;4.28;2.47;;;;;;;21.96;52.28;96320.41;5042003;28;20028;-32
2023/05/31 00:22:55;;;;;;;5.55;2.95;;;;;;;22.12;52.13;96325.19;5039272;28;20176;-32
2023/05/31 00:25:20;;;;;;;5.00;3.00;;;;;;;22.27;51.63;96324.88;5040964;28;20358;-32
2023/05/31 00:27:46;;;;;;;5.28;2.72;;;;;;;22.27;51.11;96325.63;5033368;28;20025;-32
2023/05/31 00:30:12;;;;;;;4.88;2.67;;;;;;;22.23;51.14;96327.91;5033796;28;20029;-32
2023/05/31 00:32:38;;;;;;;6.15;2.83;;;;;;;22.31;51.13;96330.91;5029299;28;20129;-33
2023/05/31 00:35:03;;;;;;;3.58;2.72;;;;;;;22.16;51.50;96328.41;5033787;28;20068;-32
2023/05/31 00:37:29;;;;;;;4.50;2.70;;;;;;;22.20;51.42;96326.16;5040164;28;20059;-32
2023/05/31 00:39:55;;;;;;;5.03;2.83;;;;;;;22.19;51.26;96319.13;5042921;28;20410;-33
2023/05/31 00:42:20;;;;;;;10.18;2.90;;;;;;;22.40;51.05;96325.09;5045621;28;20029;-33
2023/05/31 00:44:45;;;;;;;4.95;2.78;;;;;;;22.12;51.41;96316.91;5033945;28;20025;-32
2023/05/31 00:47:11;;;;;;;5.22;2.88;;;;;;;22.11;52.23;96318.16;5033382;28;20017;-32
2023/05/31 00:49:37;;;;;;;5.07;2.95;;;;;;;21.98;52.39;96312.38;5033129;28;20101;-33
2023/05/31 00:52:03;;;;;;;6.45;3.05;;;;;;;22.01;51.90;96319.66;5042906;28;20017;-34
2023/05/31 00:54:29;;;;;;;4.53;2.83;;;;;;;22.15;51.73;96315.84;5044377;28;20108;-32
2023/05/31 00:56:54;;;;;;;6.43;3.22;;;;;;;21.99;51.95;96320.19;5044579;28;20365;-32
2023/05/31 00:59:20;;;;;;;3.97;2.70;;;;;;;22.20;51.28;96326.16;5039699;28;20067;-33
2023/05/31 01:01:46;;;;;;;4.38;3.00;;;;;;;22.18;51.35;96320.38;5041254;28;20021;-33
2023/05/31 01:04:12;;;;;;;4.43;2.50;;;;;;;22.16;51.38;96317.38;5038050;28;20083;-33
2023/05/31 01:06:39;;;;;;;4.18;2.92;;;;;;;22.15;51.79;96318.63;5047567;28;20021;-32
2023/05/31 01:09:07;;;;;;;3.85;3.15;;;;;;;22.18;51.43;96325.91;5039602;28;20021;-33
2023/05/31 01:11:45;;;;;;;4.75;2.70;;;;;;;22.09;52.13;96317.91;5030158;28;20048;-33
2023/05/31 01:14:19;;;;;;;3.67;2.95;;;;;;;22.12;51.62;96319.66;5044155;28;20033;-33
2023/05/31 01:16:52;;;;;;;5.15;3.03;;;;;;;22.12;51.40;96320.41;5037506;28;20044;-32
2023/05/31 01:19:47;;;;;;;4.75;2.85;;;;;;;22.21;51.71;96316.63;5035800;28;20112;-32
2023/05/31 01:22:27;;;;;;;3.55;2.70;;;;;;;22.15;51.56;96321.38;5036676;28;20048;-32
2023/05/31 01:25:20;;;;;;;5.35;2.78;;;;;;;22.18;51.78;96323.91;5030673;28;20021;-32
2023/05/31 01:27:46;;;;;;;4.53;3.20;;;;;;;22.22;51.83;96320.88;5043724;28;20485;-33
2023/05/31 01:30:13;;;;;;;7.57;4.03;;;;;;;22.17;51.37;96324.41;5035536;28;20057;-33
2023/05/31 01:32:38;;;;;;;4.05;2.83;;;;;;;22.18;51.23;96325.91;5036944;28;20033;-32
2023/05/31 01:35:04;;;;;;;4.88;3.05;;;;;;;22.16;51.23;96328.41;5036721;28;20381;-33
2023/05/31 01:37:29;;;;;;;5.00;3.42;;;;;;;22.11;52.14;96323.66;5036114;28;20033;-32
2023/05/31 01:39:56;;;;;;;4.05;2.70;;;;;;;22.10;51.98;96317.41;5044097;28;20055;-33
2023/05/31 01:42:23;;;;;;;5.25;3.05;;;;;;;22.07;51.95;96318.41;5049167;28;20533;-33
2023/05/31 01:44:50;;;;;;;4.63;3.00;;;;;;;22.21;51.43;96311.09;5037460;28;20045;-33
2023/05/31 01:47:18;;;;;;;5.82;3.38;;;;;;;22.15;51.95;96318.63;5036186;28;20025;-32
2023/05/31 01:49:44;;;;;;;3.85;3.08;;;;;;;22.09;52.84;96317.91;5035932;28;20033;-33
2023/05/31 01:52:13;;;;;;;3.92;2.72;;;;;;;22.15;51.85;96322.13;5036678;28;20022;-32
2023/05/31 01:54:38;;;;;;;4.70;3.25;;;;;;;22.23;51.73;96319.63;5035803;28;20042;-32
2023/05/31 01:57:05;;;;;;;4.30;2.97;;;;;;;22.22;51.85;96320.88;5043758;28;20037;-33
2023/05/31 01:59:34;;;;;;;5.00;3.13;;;;;;;22.21;52.02;96317.38;5048007;28;20017;-32
2023/05/31 02:02:00;;;;;;;4.22;2.72;;;;;;;21.96;52.19;96314.88;5045108;28;20054;-32
2023/05/31 02:04:25;;;;;;;5.47;3.20;;;;;;;21.91;52.10;96315.63;5037585;28;20048;-32
2023/05/31 02:06:51;;;;;;;5.75;3.42;;;;;;;22.03;52.47;96317.13;5039980;28;20044;-32
2023/05/31 02:09:18;;;;;;;5.00;3.55;;;;;;;21.98;52.41;96315.13;5036452;28;20080;-32
2023/05/31 02:11:43;;;;;;;3.80;2.80;;;;;;;22.16;51.16;96318.13;5040800;28;20103;-32
2023/05/31 02:14:08;;;;;;;4.30;2.95;;;;;;;22.05;51.34;96322.91;5038365;28;20132;-33
2023/05/31 02:16:34;;;;;;;6.07;3.20;;;;;;;21.76;52.23;96315.91;5043102;28;20152;-32
2023/05/31 02:19:00;;;;;;;3.85;3.10;;;;;;;21.79;52.01;96315.66;5035581;28;20105;-32
2023/05/31 02:21:26;;;;;;;6.00;3.50;;;;;;;21.82;52.65;96320.16;5035604;28;20450;-32
2023/05/31 02:23:51;;;;;;;4.55;3.25;;;;;;;21.81;52.48;96321.41;5042611;28;20034;-32
2023/05/31 02:26:17;;;;;;;4.75;3.20;;;;;;;21.90;52.42;96309.34;5033854;28;20021;-32
2023/05/31 02:28:42;;;;;;;3.78;2.97;;;;;;;21.81;52.65;96320.66;5050437;28;20028;-32
2023/05/31 02:31:08;;;;;;;4.10;2.78;;;;;;;21.79;52.87;96312.88;5041121;28;20103;-32
2023/05/31 02:33:33;;;;;;;4.25;3.10;;;;;;;22.10;52.06;96317.41;5037724;28;20078;-32
2023/05/31 02:35:59;;;;;;;4.03;3.33;;;;;;;21.88;52.41;96320.16;5035502;28;20100;-32
2023/05/31 02:38:25;;;;;;;5.90;3.47;;;;;;;21.89;52.59;96318.88;5035220;28;20037;-33
2023/05/31 02:40:50;;;;;;;5.43;3.03;;;;;;;21.96;52.19;96317.63;5037468;28;21117;-32
2023/05/31 02:43:16;;;;;;;4.95;3.38;;;;;;;21.81;52.27;96318.66;5040588;28;20139;-32
2023/05/31 02:45:42;;;;;;;7.55;3.70;;;;;;;21.70;52.49;96315.91;5042735;28;20060;-32
2023/05/31 02:48:07;;;;;;;5.57;3.03;;;;;;;21.62;52.50;96323.19;5035182;28;20027;-32
2023/05/31 02:50:33;;;;;;;6.32;3.47;;;;;;;21.93;51.60;96315.88;5035331;28;20032;-33
2023/05/31 02:53:00;;;;;;;4.57;3.53;;;;;;;21.77;52.30;96314.63;5034880;28;20104;-31
2023/05/31 02:55:26;;;;;;;5.97;3.33;;;;;;;21.94;51.59;96312.63;5035286;28;20465;-32
2023/05/31 02:57:52;;;;;;;5.45;3.67;;;;;;;21.93;51.74;96316.63;5034625;28;20032;-32
2023/05/31 03:00:18;;;;;;;5.03;3.38;;;;;;;21.92;52.34;96312.38;5036292;28;20028;-32
2023/05/31 03:02:43;;;;;;;6.65;3.72;;;;;;;21.88;52.36;96316.66;5039418;28;20083;-32
2023/05/31 03:05:09;;;;;;;5.18;3.50;;;;;;;22.05;51.73;96315.38;5047805;28;20413;-33
2023/05/31 03:07:35;;;;;;;4.50;3.05;;;;;;;21.80;52.58;96314.38;5035002;28;20021;-32
2023/05/31 03:10:04;;;;;;;6.75;3.50;;;;;;;21.90;52.17;96314.13;5034488;28;20354;-32
2023/05/31 03:12:30;;;;;;;5.90;3.88;;;;;;;21.75;52.51;96315.16;5041586;28;20539;-33
2023/05/31 03:14:55;;;;;;;8.27;3.63;;;;;;;21.75;52.51;96315.16;5034641;28;20069;-32
2023/05/31 03:17:21;;;;;;;6.03;3.67;;;;;;;22.05;51.98;96320.16;5034779;28;20027;-33
2023/05/31 03:19:46;;;;;;;6.10;3.90;;;;;;;22.00;52.43;96318.19;5045728;28;20479;-33
2023/05/31 03:22:12;;;;;;;4.97;3.55;;;;;;;21.83;53.02;96313.38;5037557;28;20103;-33
2023/05/31 03:24:37;;;;;;;7.10;3.50;;;;;;;22.02;52.31;96312.88;5041857;28;20020;-32
2023/05/31 03:27:03;;;;;;;5.43;3.67;;;;;;;22.07;52.20;96320.41;5034560;28;20017;-32
2023/05/31 03:29:29;;;;;;;6.68;4.10;;;;;;;22.09;52.42;96320.66;5034592;28;20389;-33
2023/05/31 03:31:54;;;;;;;4.82;3.85;;;;;;;22.05;52.31;96320.91;5034375;28;20021;-33
2023/05/31 03:34:21;;;;;;;6.57;3.70;;;;;;;21.95;52.52;96316.88;5041627;28;20346;-32
2023/05/31 03:36:46;;;;;;;6.88;3.92;;;;;;;22.00;52.33;96318.19;5041020;28;20034;-33
2023/05/31 03:39:12;;;;;;;6.85;4.43;;;;;;;22.12;52.47;96316.91;5034343;28;20029;-33
2023/05/31 03:41:37;;;;;;;6.80;4.03;;;;;;;21.98;52.41;96315.13;5041714;28;20028;-32
2023/05/31 03:44:03;;;;;;;7.10;4.20;;;;;;;22.00;52.52;96318.19;5026710;28;20044;-32
2023/05/31 03:46:28;;;;;;;6.95;4.75;;;;;;;21.93;52.47;96319.41;5034359;28;20029;-33
2023/05/31 03:48:54;;;;;;;10.60;5.03;;;;;;;21.93;52.92;96313.88;5035018;28;20021;-32
2023/05/31 03:51:19;;;;;;;9.40;5.45;;;;;;;22.07;52.54;96314.88;5040098;28;20018;-33
2023/05/31 03:53:45;;;;;;;12.45;5.45;;;;;;;21.97;52.92;96314.38;5040605;28;20099;-32
2023/05/31 03:56:10;;;;;;;9.60;5.53;;;;;;;21.85;52.83;96307.38;5034496;28;20124;-32
2023/05/31 03:58:35;;;;;;;15.25;5.43;;;;;;;21.88;52.67;96307.09;5033709;28;20014;-32
2023/05/31 04:01:02;;;;;;;7.57;4.90;;;;;;;21.99;52.67;96309.13;5041448;28;20025;-32
2023/05/31 04:03:27;;;;;;;9.25;4.90;;;;;;;21.87;52.92;96299.34;5033918;28;20022;-32
2023/05/31 04:05:53;;;;;;;6.82;4.30;;;;;;;21.96;52.47;96296.31;5047323;28;20468;-32
2023/05/31 04:08:18;;;;;;;6.60;4.30;;;;;;;22.05;52.70;96301.56;5035902;28;20078;-32
2023/05/31 04:10:44;;;;;;;5.85;4.03;;;;;;;21.83;53.13;96298.84;5039396;28;20013;-33
2023/05/31 04:13:09;;;;;;;7.20;3.90;;;;;;;21.80;53.21;96300.59;5033939;28;20381;-32
2023/05/31 04:15:35;;;;;;;6.18;4.03;;;;;;;21.90;53.08;96303.06;5033601;28;20024;-32
2023/05/31 04:18:01;;;;;;;6.43;4.40;;;;;;;21.80;53.16;96302.59;5034089;28;20029;-33
2023/05/31 04:20:27;;;;;;;5.22;3.95;;;;;;;21.94;52.54;96303.59;5033863;28;20021;-33
2023/05/31 04:22:53;;;;;;;7.50;4.47;;;;;;;21.84;53.06;96306.63;5045413;28;20017;-32
2023/05/31 04:25:19;;;;;;;7.53;4.55;;;;;;;21.96;52.56;96309.34;5043054;28;20032;-33
2023/05/31 04:27:45;;;;;;;5.60;3.72;;;;;;;21.91;52.37;96312.88;5033297;28;20465;-32
2023/05/31 04:30:11;;;;;;;5.32;3.88;;;;;;;21.84;52.53;96309.38;5033668;28;20512;-33
2023/05/31 04:32:37;;;;;;;5.72;4.03;;;;;;;21.99;52.06;96317.41;5033384;28;20464;-32
2023/05/31 04:35:04;;;;;;;6.97;3.80;;;;;;;21.93;52.36;96321.41;5033573;28;20018;-33
2023/05/31 04:37:30;;;;;;;5.63;4.03;;;;;;;21.93;51.97;96322.16;5029961;28;20029;-33
2023/05/31 04:39:56;;;;;;;7.20;4.28;;;;;;;21.72;52.50;96320.94;5040260;28;20025;-32
2023/05/31 04:42:24;;;;;;;7.88;4.15;;;;;;;21.79;52.30;96328.69;5040823;28;20030;-32
2023/05/31 04:44:51;;;;;;;7.32;4.80;;;;;;;21.82;52.57;96322.94;5033798;28;20025;-33
2023/05/31 04:47:18;;;;;;;6.75;4.05;;;;;;;21.86;51.67;96325.44;5032369;28;20025;-33
2023/05/31 04:49:45;;;;;;;5.32;4.22;;;;;;;21.81;52.35;96328.94;5033628;28;20032;-32
2023/05/31 04:52:11;;;;;;;6.75;4.28;;;;;;;21.65;52.99;96326.94;5033037;28;20091;-32
2023/05/31 04:54:36;;;;;;;5.93;4.50;;;;;;;21.78;52.50;96330.69;5039063;28;20485;-32
2023/05/31 04:57:04;;;;;;;6.43;4.40;;;;;;;21.80;52.28;96328.19;5034428;28;20430;-32
2023/05/31 04:59:29;;;;;;;8.90;4.43;;;;;;;21.67;52.68;96335.47;5038041;28;20051;-33
2023/05/31 05:01:55;;;;;;;6.97;4.10;;;;;;;21.85;52.45;96341.25;5035557;28;20049;-33
2023/05/31 05:04:20;;;;;;;5.80;4.13;;;;;;;21.90;52.13;96330.69;5042315;28;20036;-32
2023/05/31 05:06:45;;;;;;;6.07;3.75;;;;;;;21.77;52.83;96343.00;5037985;28;20155;-33
2023/05/31 05:09:11;;;;;;;7.40;4.38;;;;;;;21.62;53.16;96342.53;5040267;28;20507;-32
2023/05/31 05:11:36;;;;;;;5.68;3.80;;;;;;;21.88;52.42;96342.25;5040251;28;20017;-32
2023/05/31 05:14:02;;;;;;;4.88;3.60;;;;;;;21.99;51.83;96342.28;5033257;28;20014;-33
2023/05/31 05:16:27;;;;;;;7.75;4.28;;;;;;;22.00;51.67;96341.03;5033150;28;20018;-33
2023/05/31 05:18:53;;;;;;;8.07;4.40;;;;;;;21.98;51.84;96342.75;5033064;28;20068;-32
2023/05/31 05:21:18;;;;;;;5.85;3.70;;;;;;;21.88;52.62;96345.75;5033215;28;20017;-33
2023/05/31 05:23:44;;;;;;;7.13;4.40;;;;;;;21.88;52.27;96350.53;5036177;28;20024;-33
2023/05/31 05:26:10;;;;;;;5.40;3.90;;;;;;;21.88;52.28;96352.53;5037176;28;20022;-33
2023/05/31 05:28:35;;;;;;;8.23;4.57;;;;;;;21.97;52.38;96355.78;5040377;28;20120;-33
2023/05/31 05:31:03;;;;;;;5.65;4.18;;;;;;;21.94;52.70;96345.75;5032950;28;20016;-34
2023/05/31 05:33:29;;;;;;;5.68;3.85;;;;;;;21.85;52.43;96352.28;5033515;28;20354;-32
2023/05/31 05:35:54;;;;;;;6.50;3.97;;;;;;;21.88;52.42;96351.25;5033055;28;20026;-33
2023/05/31 05:38:20;;;;;;;6.57;3.83;;;;;;;21.74;53.31;96355.06;5035623;28;20026;-33
2023/05/31 05:40:46;;;;;;;6.97;4.03;;;;;;;21.83;53.17;96363.09;5045337;28;20025;-32
2023/05/31 05:43:11;;;;;;;6.65;4.40;;;;;;;21.70;53.39;96362.84;5046561;28;20020;-32
2023/05/31 05:45:37;;;;;;;4.80;4.15;;;;;;;21.77;53.01;96362.31;5038591;28;20022;-34
2023/05/31 05:48:03;;;;;;;8.23;4.38;;;;;;;21.90;52.70;96366.56;5043571;28;20052;-32
2023/05/31 05:50:29;;;;;;;8.65;4.00;;;;;;;21.82;52.56;96369.84;5036059;28;20392;-32
2023/05/31 05:52:54;;;;;;;6.47;4.20;;;;;;;21.80;52.94;96364.06;5036255;28;20079;-33
2023/05/31 05:55:20;;;;;;;5.13;4.20;;;;;;;21.98;53.02;96370.34;5036304;28;20061;-35
2023/05/31 05:57:46;;;;;;;5.40;3.97;;;;;;;21.77;53.18;96376.13;5043235;28;20031;-33
2023/05/31 06:00:12;;;;;;;5.25;3.97;;;;;;;21.95;53.05;96377.63;5036348;28;20100;-32
2023/05/31 06:02:38;;;;;;;5.28;4.20;;;;;;;22.02;52.78;96382.66;5036066;28;20100;-33
2023/05/31 06:05:04;;;;;;;5.88;4.00;;;;;;;21.89;53.38;96385.16;5043257;28;20159;-32
2023/05/31 06:07:30;;;;;;;6.93;3.38;;;;;;;22.01;52.92;96385.94;5036024;28;20127;-33
2023/05/31 06:09:56;;;;;;;5.10;3.90;;;;;;;21.86;54.02;96386.94;5035787;28;20104;-33
2023/05/31 06:12:21;;;;;;;4.80;3.70;;;;;;;21.90;53.75;96386.66;5037752;28;20469;-33
2023/05/31 06:14:48;;;;;;;7.10;4.35;;;;;;;21.95;53.88;96390.69;5041550;28;20465;-33
2023/05/31 06:17:13;;;;;;;5.95;3.88;;;;;;;21.82;54.61;96386.41;5043258;28;20108;-33
2023/05/31 06:19:39;;;;;;;5.32;3.97;;;;;;;21.95;53.75;96391.44;5028675;28;20159;-33
2023/05/31 06:22:04;;;;;;;6.45;4.10;;;;;;;21.96;54.42;96394.94;5035723;28;20108;-33
2023/05/31 06:24:30;;;;;;;4.90;3.72;;;;;;;21.97;54.00;96390.94;5042109;28;20507;-33
2023/05/31 06:26:55;;;;;;;6.13;3.65;;;;;;;21.98;54.22;96390.44;5035971;28;20025;-33
2023/05/31 06:29:21;;;;;;;5.57;3.90;;;;;;;21.96;54.69;96392.19;5042515;28;20528;-33
2023/05/31 06:31:46;;;;;;;7.82;4.03;;;;;;;21.99;54.44;96391.22;5035596;28;20021;-33
2023/05/31 06:34:12;;;;;;;6.03;3.97;;;;;;;22.02;54.69;96401.25;5035719;28;20029;-32
2023/05/31 06:36:37;;;;;;;5.70;3.90;;;;;;;22.02;55.20;96398.47;5035707;28;20530;-32
2023/05/31 06:39:03;;;;;;;5.05;4.05;;;;;;;22.03;54.68;96402.75;5035367;28;20021;-33
2023/05/31 06:41:29;;;;;;;5.43;3.85;;;;;;;22.15;54.20;96401.47;5042684;28;20499;-33
2023/05/31 06:43:55;;;;;;;6.90;4.32;;;;;;;22.19;54.27;96402.75;5042650;28;20029;-33
2023/05/31 06:46:20;;;;;;;5.10;3.85;;;;;;;22.01;54.03;96408.00;5042203;28;20033;-34
2023/05/31 06:48:46;;;;;;;5.10;4.00;;;;;;;22.03;54.60;96400.00;5034764;28;20029;-33
2023/05/31 06:51:11;;;;;;;6.60;4.50;;;;;;;22.10;54.24;96399.50;5035378;28;20018;-33
2023/05/31 06:53:37;;;;;;;5.57;4.22;;;;;;;22.17;53.94;96407.25;5035222;28;20436;-33
2023/05/31 06:56:02;;;;;;;4.75;4.22;;;;;;;22.02;54.38;96401.25;5035594;28;20033;-32
2023/05/31 06:58:31;;;;;;;4.82;3.75;;;;;;;22.17;54.07;96402.50;5039586;28;20606;-33
2023/05/31 07:00:57;;;;;;;5.93;4.25;;;;;;;22.04;54.80;96398.72;5037325;28;20025;-33
2023/05/31 07:03:22;;;;;;;5.90;4.22;;;;;;;22.24;54.04;96403.25;5027713;28;20025;-33
2023/05/31 07:05:49;;;;;;;5.68;4.10;;;;;;;22.06;54.59;96402.50;5041759;28;20050;-34
2023/05/31 07:08:15;;;;;;;6.80;4.28;;;;;;;22.16;54.31;96397.47;5034661;28;20338;-33
2023/05/31 07:10:40;;;;;;;5.00;4.10;;;;;;;22.29;53.48;96400.47;5034619;28;20025;-33
2023/05/31 07:13:06;;;;;;;6.38;4.00;;;;;;;22.21;54.19;96386.44;5041836;28;20084;-33
2023/05/31 07:15:33;;;;;;;5.78;3.80;;;;;;;22.24;54.39;96392.19;5041925;28;20025;-35
2023/05/31 07:17:58;;;;;;;5.55;4.38;;;;;;;22.23;54.41;96394.22;5039535;28;20025;-34
2023/05/31 07:20:24;;;;;;;6.75;4.40;;;;;;;22.25;54.39;96391.69;5036168;28;20122;-33
2023/05/31 07:22:51;;;;;;;4.88;3.35;;;;;;;22.27;54.74;96389.16;5038975;28;20024;-33
2023/05/31 07:25:16;;;;;;;5.45;3.88;;;;;;;22.13;55.66;96390.22;5037032;28;20059;-32
2023/05/31 07:27:42;;;;;;;7.72;3.92;;;;;;;22.29;54.63;96388.66;5037096;28;20048;-33
2023/05/31 07:30:08;;;;;;;5.72;4.30;;;;;;;22.07;55.52;96386.69;5039299;28;20021;-32
2023/05/31 07:32:33;;;;;;;4.50;3.72;;;;;;;22.19;54.71;96390.94;5041917;28;20079;-35
2023/05/31 07:34:59;;;;;;;6.85;4.07;;;;;;;22.19;55.43;96385.41;5041839;28;20033;-33
2023/05/31 07:37:24;;;;;;;5.07;3.88;;;;;;;22.17;55.46;96383.16;5034538;28;20476;-34
2023/05/31 07:39:50;;;;;;;6.22;4.13;;;;;;;22.27;55.47;96378.13;5034602;28;20029;-32
2023/05/31 07:42:15;;;;;;;6.40;4.68;;;;;;;22.23;55.92;96385.16;5041786;28;20104;-33
2023/05/31 07:44:41;;;;;;;5.18;4.00;;;;;;;22.36;55.14;96388.16;5041353;28;20392;-33
2023/05/31 07:47:06;;;;;;;5.00;3.88;;;;;;;22.27;55.45;96386.41;5043792;28;20063;-33
2023/05/31 07:49:32;;;;;;;5.80;3.80;;;;;;;22.18;56.16;96394.97;5038151;28;20032;-33
2023/05/31 07:51:57;;;;;;;4.60;3.88;;;;;;;22.12;56.15;96389.47;5041572;28;20018;-33
2023/05/31 07:54:22;;;;;;;6.38;3.97;;;;;;;22.49;54.25;96397.44;5033865;28;20493;-33
2023/05/31 07:56:48;;;;;;;5.13;4.07;;;;;;;22.41;54.50;96388.13;5032452;28;20041;-33
2023/05/31 07:59:13;;;;;;;5.10;3.50;;;;;;;22.39;53.74;96398.19;5034566;28;20067;-33
2023/05/31 08:01:42;;;;;;;5.25;3.72;;;;;;;22.62;53.40;96396.13;5039857;28;20021;-32
2023/05/31 08:04:12;;;;;;;4.78;3.50;;;;;;;22.58;53.31;96388.09;5041573;28;20397;-32
2023/05/31 08:06:37;;;;;;;5.03;3.28;;;;;;;22.55;53.60;96384.34;5043924;28;20017;-32
2023/05/31 08:09:07;;;;;;;4.65;3.67;;;;;;;22.70;53.22;96383.28;5036211;28;20537;-33
2023/05/31 08:11:35;;;;;;;5.50;3.30;;;;;;;22.65;53.57;96384.78;5026581;28;20020;-33
2023/05/31 08:14:01;;;;;;;4.03;3.20;;;;;;;22.73;53.47;96388.56;5033738;28;20037;-33
2023/05/31 08:16:27;;;;;;;4.85;3.70;;;;;;;22.72;54.09;96391.81;5035778;28;20388;-32
2023/05/31 08:18:52;;;;;;;5.40;3.53;;;;;;;22.71;53.40;96382.78;5039125;28;20014;-33
2023/05/31 08:21:18;;;;;;;4.30;2.95;;;;;;;22.65;54.02;96376.50;5040914;28;20465;-34
2023/05/31 08:23:43;;;;;;;4.00;3.17;;;;;;;22.62;53.50;96385.09;5033541;28;20350;-32
2023/05/31 08:26:09;;;;;;;3.58;2.92;;;;;;;22.76;52.60;96379.25;5028500;28;20599;-33
2023/05/31 08:28:34;;;;;;;3.80;3.28;;;;;;;22.71;53.03;96374.50;5033013;28;20029;-33
2023/05/31 08:31:00;;;;;;;4.93;3.05;;;;;;;22.71;52.71;96368.22;5033854;28;20021;-33
2023/05/31 08:33:31;;;;;;;3.33;2.95;;;;;;;22.78;52.81;96368.44;5039447;28;20025;-33
2023/05/31 08:35:59;;;;;;;4.03;2.80;;;;;;;22.88;53.26;96368.91;5029620;28;20025;-33
2023/05/31 08:38:28;;;;;;;5.55;2.75;;;;;;;22.93;52.62;96373.66;5037213;28;20028;-33
2023/05/31 08:40:56;;;;;;;3.63;2.70;;;;;;;22.85;52.70;96369.94;5043072;28;20108;-32
2023/05/31 08:43:25;;;;;;;5.43;2.90;;;;;;;22.96;52.42;96358.81;5037128;28;20017;-33
2023/05/31 08:45:51;;;;;;;3.85;2.80;;;;;;;22.95;52.61;96365.63;5034333;28;20481;-33
2023/05/31 08:48:42;;;;;;;4.35;2.85;;;;;;;23.02;52.25;96358.78;5043197;28;20365;-33
2023/05/31 08:51:09;;;;;;;3.72;2.60;;;;;;;23.02;52.33;96361.53;5040608;28;20025;-33
2023/05/31 08:53:34;;;;;;;4.75;2.72;;;;;;;23.11;52.37;96356.50;5039895;28;20060;-33
2023/05/31 08:56:01;;;;;;;4.00;2.80;;;;;;;23.05;53.15;96355.75;5033617;28;20041;-33
2023/05/31 08:58:28;;;;;;;3.90;3.00;;;;;;;22.87;52.85;96348.78;5033472;28;20025;-33
2023/05/31 09:00:54;;;;;;;3.63;2.70;;;;;;;23.04;52.14;96357.00;5033646;28;20014;-33
2023/05/31 09:03:22;;;;;;;5.38;3.13;;;;;;;22.92;52.62;96352.81;5033607;28;20025;-33
2023/05/31 09:05:47;;;;;;;3.92;3.20;;;;;;;22.80;53.23;96356.88;5039017;28;20048;-33
2023/05/31 09:08:13;;;;;;;4.60;3.10;;;;;;;23.09;52.54;96358.25;5035590;28;20431;-33
2023/05/31 09:10:39;;;;;;;5.53;2.90;;;;;;;23.11;52.13;96358.50;5039379;28;20461;-33
2023/05/31 09:13:06;;;;;;;3.85;2.70;;;;;;;23.08;51.76;96357.50;5035125;28;20047;-33
2023/05/31 09:15:34;;;;;;;6.38;3.08;;;;;;;23.06;51.87;96357.25;5037520;28;20026;-33
2023/05/31 09:18:15;;;;;;;6.93;3.20;;;;;;;23.04;51.88;96359.03;5037123;28;20400;-33
2023/05/31 09:20:42;;;;;;;4.15;2.70;;;;;;;23.04;52.28;96357.00;5029781;28;20021;-33
2023/05/31 09:23:09;;;;;;;6.22;3.10;;;;;;;23.00;52.53;96351.00;5050550;28;20021;-34
2023/05/31 09:25:44;;;;;;;3.40;2.78;;;;;;;22.97;51.96;96356.81;5044593;28;20057;-34
2023/05/31 09:28:10;;;;;;;4.22;3.10;;;;;;;23.10;51.73;96354.97;5037006;28;20021;-33
2023/05/31 09:30:36;;;;;;;3.85;2.53;;;;;;;23.04;51.65;96354.25;5038170;28;20029;-33
2023/05/31 09:33:01;;;;;;;3.60;3.10;;;;;;;23.11;51.35;96348.19;5042888;28;20538;-33
2023/05/31 09:35:27;;;;;;;6.28;3.15;;;;;;;23.06;51.85;96346.19;5043383;28;20033;-33
2023/05/31 09:37:53;;;;;;;4.43;2.75;;;;;;;23.06;52.39;96350.97;5046085;28;20025;-33
2023/05/31 09:40:26;;;;;;;4.05;3.22;;;;;;;23.12;51.80;96357.97;5041347;28;20029;-34
2023/05/31 09:42:53;;;;;;;4.13;2.90;;;;;;;23.42;51.63;96351.75;5044034;28;20108;-33
2023/05/31 09:45:20;;;;;;;4.15;3.25;;;;;;;23.29;52.50;96347.56;5035265;28;20124;-33
2023/05/31 09:47:46;;;;;;;3.55;2.80;;;;;;;23.25;52.11;96349.84;5043667;28;20043;-33
2023/05/31 09:50:16;;;;;;;4.75;2.70;;;;;;;23.12;53.59;96349.66;5036570;28;20021;-32
2023/05/31 09:52:54;;;;;;;4.38;2.85;;;;;;;23.11;53.66;96356.50;5043846;28;20022;-34
2023/05/31 09:55:20;;;;;;;3.60;2.80;;;;;;;23.25;53.93;96355.38;5036498;28;20047;-33
2023/05/31 09:57:45;;;;;;;4.07;3.10;;;;;;;23.18;54.16;96355.94;5036290;28;20021;-33
2023/05/31 10:00:14;;;;;;;4.28;3.20;;;;;;;23.22;53.90;96347.38;5035984;28;20028;-33
2023/05/31 10:02:42;;;;;;;4.47;3.13;;;;;;;23.31;53.90;96338.75;5036125;28;20036;-33
2023/05/31 10:05:08;;;;;;;4.00;2.75;;;;;;;23.22;54.51;96356.41;5043975;28;20032;-33
2023/05/31 10:07:36;;;;;;;4.20;3.03;;;;;;;23.28;53.91;96354.34;5038936;28;20028;-33
2023/05/31 10:10:01;;;;;;;4.05;3.10;;;;;;;23.22;53.96;96350.88;5035813;28;20033;-33
2023/05/31 10:12:29;;;;;;;5.97;3.20;;;;;;;23.21;54.05;96349.38;5043307;28;20013;-33
2023/05/31 10:15:01;;;;;;;4.03;2.97;;;;;;;23.23;53.56;96357.94;5036030;28;20110;-33
2023/05/31 10:17:29;;;;;;;3.67;2.55;;;;;;;23.35;53.18;96346.78;5035664;28;20112;-33
2023/05/31 10:20:01;;;;;;;5.18;2.90;;;;;;;23.38;53.14;96351.28;5035805;28;20017;-33
2023/05/31 10:22:30;;;;;;;3.50;2.78;;;;;;;23.29;53.99;96344.03;5037068;28;20093;-33
2023/05/31 10:25:05;;;;;;;4.72;2.47;;;;;;;23.51;53.43;96351.47;5047486;28;20104;-33
2023/05/31 10:27:39;;;;;;;3.70;2.60;;;;;;;23.26;53.64;96347.81;5041853;28;20404;-33
2023/05/31 10:30:05;;;;;;;3.13;2.40;;;;;;;23.36;53.64;96348.28;5035460;28;20103;-32
2023/05/31 10:32:45;;;;;;;5.70;2.30;;;;;;;23.36;53.36;96353.81;5032122;28;20022;-33
2023/05/31 10:35:11;;;;;;;3.67;2.10;;;;;;;23.33;53.67;96344.53;5035547;28;20083;-33
2023/05/31 10:37:41;;;;;;;3.08;2.00;;;;;;;23.25;53.47;96344.31;5035367;28;20021;-33
2023/05/31 10:40:19;;;;;;;2.88;2.10;;;;;;;23.32;52.68;96348.56;5039487;28;20036;-34
2023/05/31 10:42:56;;;;;;;3.83;2.63;;;;;;;23.36;52.48;96345.53;5044893;28;20022;-33
2023/05/31 10:45:42;;;;;;;3.25;1.92;;;;;;;23.36;51.87;96348.28;5040400;28;20108;-33
2023/05/31 10:48:37;;;;;;;2.53;1.85;;;;;;;23.39;51.47;96341.72;5028016;28;20029;-33
2023/05/31 10:51:03;;;;;;;4.03;2.20;;;;;;;23.45;51.47;96342.44;5042520;28;20025;-32
2023/05/31 10:53:46;;;;;;;2.63;2.38;;;;;;;23.50;51.38;96347.16;5034916;28;20046;-33
2023/05/31 10:56:13;;;;;;;3.05;2.28;;;;;;;23.42;51.72;96341.44;5044717;28;20032;-33
2023/05/31 10:58:51;;;;;;;3.25;2.20;;;;;;;23.44;51.69;96343.69;5039443;28;20525;-33
2023/05/31 11:01:21;;;;;;;3.85;2.03;;;;;;;23.44;51.33;96340.94;5039601;28;20942;-33
2023/05/31 11:03:47;;;;;;;4.40;2.10;;;;;;;23.47;51.62;96332.34;5035094;28;20013;-35
2023/05/31 11:06:15;;;;;;;2.70;2.10;;;;;;;23.48;51.80;96338.66;5041624;28;20028;-33
2023/05/31 11:08:57;;;;;;;2.80;1.80;;;;;;;23.40;51.65;96332.91;5034965;28;20095;-33
2023/05/31 11:11:31;;;;;;;3.15;2.08;;;;;;;23.46;50.69;96327.34;5034889;28;20021;-32
2023/05/31 11:14:03;;;;;;;2.92;2.20;;;;;;;23.46;50.04;96324.56;5041653;28;20017;-33
2023/05/31 11:16:33;;;;;;;2.58;2.08;;;;;;;23.37;49.52;96328.38;5041930;28;20047;-33
2023/05/31 11:19:06;;;;;;;2.55;1.77;;;;;;;23.50;49.69;96331.34;5034658;28;20040;-33
2023/05/31 11:21:48;;;;;;;3.53;2.22;;;;;;;23.59;49.30;96327.50;5034834;28;20093;-33
2023/05/31 11:24:39;;;;;;;2.60;2.00;;;;;;;23.48;49.45;96324.81;5041923;28;20033;-33
2023/05/31 11:27:10;;;;;;;2.85;1.80;;;;;;;23.43;49.94;96312.50;5030200;28;20018;-33
2023/05/31 11:29:59;;;;;;;2.28;1.98;;;;;;;23.51;49.32;96313.47;5048575;28;20033;-33
2023/05/31 11:32:33;;;;;;;3.30;1.85;;;;;;;23.53;49.88;96307.41;5040511;28;20649;-33
2023/05/31 11:35:08;;;;;;;3.83;1.98;;;;;;;23.57;49.87;96307.91;5027657;28;20439;-33